sensor_id;sensor_type;location;lat;lon;timestamp;temperature;humidity
16901;DHT22;8567;52.540;6.434;2023-12-22T00:01:54;18.30;56.30
16901;DHT22;8567;52.540;6.434;2023-12-22T00:04:21;18.30;56.10
16901;DHT22;8567;52.540;6.434;2023-12-22T00:06:48;18.30;56.10
16901;DHT22;8567;52.540;6.434;2023-12-22T00:09:17;18.30;55.80
16901;DHT22;8567;52.540;6.434;2023-12-22T00:11:46;18.20;56.00
16901;DHT22;8567;52.540;6.434;2023-12-22T00:14:13;18.30;56.00
16901;DHT22;8567;52.540;6.434;2023-12-22T00:16:40;18.30;56.20
16901;DHT22;8567;52.540;6.434;2023-12-22T00:19:08;18.30;56.30
16901;DHT22;8567;52.540;6.434;2023-12-22T00:21:35;18.30;55.60
16901;DHT22;8567;52.540;6.434;2023-12-22T00:24:02;18.30;56.00
16901;DHT22;8567;52.540;6.434;2023-12-22T00:26:30;18.30;56.20
16901;DHT22;8567;52.540;6.434;2023-12-22T00:28:58;18.30;56.30
16901;DHT22;8567;52.540;6.434;2023-12-22T00:31:25;18.30;56.20
16901;DHT22;8567;52.540;6.434;2023-12-22T00:33:52;18.30;56.30
16901;DHT22;8567;52.540;6.434;2023-12-22T00:36:19;18.30;56.30
16901;DHT22;8567;52.540;6.434;2023-12-22T00:38:48;18.30;56.30
16901;DHT22;8567;52.540;6.434;2023-12-22T00:41:15;18.30;56.20
16901;DHT22;8567;52.540;6.434;2023-12-22T00:43:42;18.30;56.30
16901;DHT22;8567;52.540;6.434;2023-12-22T00:46:10;18.30;56.40
16901;DHT22;8567;52.540;6.434;2023-12-22T00:48:37;18.30;56.50
16901;DHT22;8567;52.540;6.434;2023-12-22T00:51:05;18.30;56.50
16901;DHT22;8567;52.540;6.434;2023-12-22T00:53:32;18.30;56.10
16901;DHT22;8567;52.540;6.434;2023-12-22T00:56:00;18.30;56.00
16901;DHT22;8567;52.540;6.434;2023-12-22T00:58:28;18.30;56.30
16901;DHT22;8567;52.540;6.434;2023-12-22T01:00:55;18.30;56.10
16901;DHT22;8567;52.540;6.434;2023-12-22T01:03:23;18.30;56.30
16901;DHT22;8567;52.540;6.434;2023-12-22T01:05:50;18.30;56.40
16901;DHT22;8567;52.540;6.434;2023-12-22T01:08:17;18.30;56.40
16901;DHT22;8567;52.540;6.434;2023-12-22T01:10:44;18.30;56.40
16901;DHT22;8567;52.540;6.434;2023-12-22T01:13:10;18.30;56.60
16901;DHT22;8567;52.540;6.434;2023-12-22T01:15:36;18.40;56.50
16901;DHT22;8567;52.540;6.434;2023-12-22T01:18:04;18.30;56.40
16901;DHT22;8567;52.540;6.434;2023-12-22T01:20:32;18.40;56.50
16901;DHT22;8567;52.540;6.434;2023-12-22T01:22:59;18.40;56.50
16901;DHT22;8567;52.540;6.434;2023-12-22T01:25:26;18.40;56.30
16901;DHT22;8567;52.540;6.434;2023-12-22T01:27:53;18.40;56.30
16901;DHT22;8567;52.540;6.434;2023-12-22T01:30:20;18.40;56.40
16901;DHT22;8567;52.540;6.434;2023-12-22T01:32:47;18.40;56.40
16901;DHT22;8567;52.540;6.434;2023-12-22T01:35:13;18.40;56.50
16901;DHT22;8567;52.540;6.434;2023-12-22T01:37:42;18.40;56.40
16901;DHT22;8567;52.540;6.434;2023-12-22T01:40:12;18.40;56.40
16901;DHT22;8567;52.540;6.434;2023-12-22T01:42:40;18.40;56.10
16901;DHT22;8567;52.540;6.434;2023-12-22T01:45:08;18.40;56.30
16901;DHT22;8567;52.540;6.434;2023-12-22T01:47:36;18.40;56.20
16901;DHT22;8567;52.540;6.434;2023-12-22T01:50:04;18.40;56.20
16901;DHT22;8567;52.540;6.434;2023-12-22T01:52:31;18.40;56.30
16901;DHT22;8567;52.540;6.434;2023-12-22T01:55:00;18.40;56.40
16901;DHT22;8567;52.540;6.434;2023-12-22T01:57:27;18.40;56.40
16901;DHT22;8567;52.540;6.434;2023-12-22T01:59:56;18.40;56.30
16901;DHT22;8567;52.540;6.434;2023-12-22T02:02:23;18.40;56.40
16901;DHT22;8567;52.540;6.434;2023-12-22T02:04:50;18.40;56.40
16901;DHT22;8567;52.540;6.434;2023-12-22T02:07:17;18.40;56.40
16901;DHT22;8567;52.540;6.434;2023-12-22T02:09:44;18.40;56.40
16901;DHT22;8567;52.540;6.434;2023-12-22T02:12:12;18.40;56.40
16901;DHT22;8567;52.540;6.434;2023-12-22T02:14:40;18.40;56.30
16901;DHT22;8567;52.540;6.434;2023-12-22T02:17:14;18.40;56.20
16901;DHT22;8567;52.540;6.434;2023-12-22T02:19:44;18.40;56.30
16901;DHT22;8567;52.540;6.434;2023-12-22T02:22:12;18.40;55.90
16901;DHT22;8567;52.540;6.434;2023-12-22T02:24:41;18.40;56.10
16901;DHT22;8567;52.540;6.434;2023-12-22T02:27:24;18.40;56.10
16901;DHT22;8567;52.540;6.434;2023-12-22T02:29:55;18.40;56.20
16901;DHT22;8567;52.540;6.434;2023-12-22T02:32:32;18.40;56.30
16901;DHT22;8567;52.540;6.434;2023-12-22T02:35:03;18.40;56.20
16901;DHT22;8567;52.540;6.434;2023-12-22T02:37:32;18.40;56.20
16901;DHT22;8567;52.540;6.434;2023-12-22T02:40:03;18.40;56.20
16901;DHT22;8567;52.540;6.434;2023-12-22T02:42:30;18.40;56.20
16901;DHT22;8567;52.540;6.434;2023-12-22T02:44:59;18.40;55.80
16901;DHT22;8567;52.540;6.434;2023-12-22T02:47:26;18.40;55.50
16901;DHT22;8567;52.540;6.434;2023-12-22T02:49:54;18.40;55.80
16901;DHT22;8567;52.540;6.434;2023-12-22T02:52:21;18.40;55.80
16901;DHT22;8567;52.540;6.434;2023-12-22T02:54:48;18.40;55.80
16901;DHT22;8567;52.540;6.434;2023-12-22T02:57:17;18.40;55.60
16901;DHT22;8567;52.540;6.434;2023-12-22T02:59:44;18.40;55.90
16901;DHT22;8567;52.540;6.434;2023-12-22T03:02:11;18.40;56.00
16901;DHT22;8567;52.540;6.434;2023-12-22T03:04:38;18.40;56.20
16901;DHT22;8567;52.540;6.434;2023-12-22T03:07:05;18.50;56.10
16901;DHT22;8567;52.540;6.434;2023-12-22T03:09:32;18.40;56.10
16901;DHT22;8567;52.540;6.434;2023-12-22T03:12:01;18.40;56.10
16901;DHT22;8567;52.540;6.434;2023-12-22T03:14:30;18.50;56.20
16901;DHT22;8567;52.540;6.434;2023-12-22T03:16:58;18.40;56.30
16901;DHT22;8567;52.540;6.434;2023-12-22T03:19:25;18.40;56.30
16901;DHT22;8567;52.540;6.434;2023-12-22T03:21:52;18.40;56.30
16901;DHT22;8567;52.540;6.434;2023-12-22T03:24:19;18.50;56.30
16901;DHT22;8567;52.540;6.434;2023-12-22T03:26:47;18.50;56.30
16901;DHT22;8567;52.540;6.434;2023-12-22T03:29:15;18.50;56.30
16901;DHT22;8567;52.540;6.434;2023-12-22T03:31:44;18.40;56.30
16901;DHT22;8567;52.540;6.434;2023-12-22T03:34:11;18.50;56.40
16901;DHT22;8567;52.540;6.434;2023-12-22T03:36:38;18.50;56.50
16901;DHT22;8567;52.540;6.434;2023-12-22T03:39:05;18.50;56.50
16901;DHT22;8567;52.540;6.434;2023-12-22T03:41:32;18.50;56.50
16901;DHT22;8567;52.540;6.434;2023-12-22T03:43:59;18.50;56.50
16901;DHT22;8567;52.540;6.434;2023-12-22T03:46:26;18.50;56.50
16901;DHT22;8567;52.540;6.434;2023-12-22T03:48:56;18.50;56.60
16901;DHT22;8567;52.540;6.434;2023-12-22T03:51:22;18.50;56.50
16901;DHT22;8567;52.540;6.434;2023-12-22T03:53:50;18.50;56.50
16901;DHT22;8567;52.540;6.434;2023-12-22T03:56:17;18.50;56.50
16901;DHT22;8567;52.540;6.434;2023-12-22T03:58:44;18.50;56.50
16901;DHT22;8567;52.540;6.434;2023-12-22T04:01:14;18.50;56.50
16901;DHT22;8567;52.540;6.434;2023-12-22T04:03:41;18.50;56.40
16901;DHT22;8567;52.540;6.434;2023-12-22T04:06:09;18.50;56.50
16901;DHT22;8567;52.540;6.434;2023-12-22T04:08:36;18.50;56.30
16901;DHT22;8567;52.540;6.434;2023-12-22T04:11:03;18.50;56.40
16901;DHT22;8567;52.540;6.434;2023-12-22T04:13:30;18.50;56.40
16901;DHT22;8567;52.540;6.434;2023-12-22T04:15:57;18.50;56.40
16901;DHT22;8567;52.540;6.434;2023-12-22T04:18:24;18.50;56.40
16901;DHT22;8567;52.540;6.434;2023-12-22T04:20:51;18.50;56.40
16901;DHT22;8567;52.540;6.434;2023-12-22T04:23:22;18.50;56.40
16901;DHT22;8567;52.540;6.434;2023-12-22T04:25:49;18.50;56.30
16901;DHT22;8567;52.540;6.434;2023-12-22T04:28:17;18.50;56.30
16901;DHT22;8567;52.540;6.434;2023-12-22T04:30:45;18.50;56.10
16901;DHT22;8567;52.540;6.434;2023-12-22T04:33:12;18.50;56.00
16901;DHT22;8567;52.540;6.434;2023-12-22T04:35:40;18.50;56.20
16901;DHT22;8567;52.540;6.434;2023-12-22T04:38:08;18.50;56.10
16901;DHT22;8567;52.540;6.434;2023-12-22T04:40:37;18.50;56.10
16901;DHT22;8567;52.540;6.434;2023-12-22T04:43:05;18.50;55.90
16901;DHT22;8567;52.540;6.434;2023-12-22T04:45:32;18.50;55.90
16901;DHT22;8567;52.540;6.434;2023-12-22T04:47:59;18.50;55.80
16901;DHT22;8567;52.540;6.434;2023-12-22T04:50:26;18.50;55.80
16901;DHT22;8567;52.540;6.434;2023-12-22T04:52:53;18.50;55.80
16901;DHT22;8567;52.540;6.434;2023-12-22T04:55:20;18.50;55.50
16901;DHT22;8567;52.540;6.434;2023-12-22T04:57:49;18.50;55.50
16901;DHT22;8567;52.540;6.434;2023-12-22T05:00:16;18.50;55.40
16901;DHT22;8567;52.540;6.434;2023-12-22T05:02:43;18.50;55.40
16901;DHT22;8567;52.540;6.434;2023-12-22T05:05:10;18.50;55.50
16901;DHT22;8567;52.540;6.434;2023-12-22T05:07:37;18.50;55.60
16901;DHT22;8567;52.540;6.434;2023-12-22T05:10:06;18.50;55.60
16901;DHT22;8567;52.540;6.434;2023-12-22T05:12:34;18.50;55.50
16901;DHT22;8567;52.540;6.434;2023-12-22T05:15:02;18.50;55.50
16901;DHT22;8567;52.540;6.434;2023-12-22T05:17:30;18.50;55.50
16901;DHT22;8567;52.540;6.434;2023-12-22T05:19:58;18.50;55.60
16901;DHT22;8567;52.540;6.434;2023-12-22T05:22:25;18.50;55.60
16901;DHT22;8567;52.540;6.434;2023-12-22T05:24:55;18.50;55.50
16901;DHT22;8567;52.540;6.434;2023-12-22T05:27:22;18.50;55.50
16901;DHT22;8567;52.540;6.434;2023-12-22T05:29:49;18.50;55.60
16901;DHT22;8567;52.540;6.434;2023-12-22T05:32:19;18.50;55.60
16901;DHT22;8567;52.540;6.434;2023-12-22T05:34:46;18.50;55.50
16901;DHT22;8567;52.540;6.434;2023-12-22T05:37:13;18.50;55.50
16901;DHT22;8567;52.540;6.434;2023-12-22T05:39:40;18.50;55.50
16901;DHT22;8567;52.540;6.434;2023-12-22T05:42:09;18.50;55.60
16901;DHT22;8567;52.540;6.434;2023-12-22T05:44:36;18.50;55.60
16901;DHT22;8567;52.540;6.434;2023-12-22T05:47:04;18.50;55.70
16901;DHT22;8567;52.540;6.434;2023-12-22T05:49:33;18.50;55.70
16901;DHT22;8567;52.540;6.434;2023-12-22T05:52:00;18.50;55.60
16901;DHT22;8567;52.540;6.434;2023-12-22T05:54:27;18.50;55.60
16901;DHT22;8567;52.540;6.434;2023-12-22T05:56:54;18.50;55.50
16901;DHT22;8567;52.540;6.434;2023-12-22T05:59:20;18.50;55.50
16901;DHT22;8567;52.540;6.434;2023-12-22T06:01:47;18.50;55.60
16901;DHT22;8567;52.540;6.434;2023-12-22T06:04:14;18.50;55.60
16901;DHT22;8567;52.540;6.434;2023-12-22T06:06:43;18.50;55.70
16901;DHT22;8567;52.540;6.434;2023-12-22T06:09:10;18.50;55.50
16901;DHT22;8567;52.540;6.434;2023-12-22T06:11:38;18.50;55.50
16901;DHT22;8567;52.540;6.434;2023-12-22T06:14:06;18.50;55.60
16901;DHT22;8567;52.540;6.434;2023-12-22T06:16:33;18.50;55.70
16901;DHT22;8567;52.540;6.434;2023-12-22T06:19:00;18.50;55.70
16901;DHT22;8567;52.540;6.434;2023-12-22T06:21:26;18.50;55.70
16901;DHT22;8567;52.540;6.434;2023-12-22T06:23:55;18.50;55.70
16901;DHT22;8567;52.540;6.434;2023-12-22T06:26:22;18.50;55.70
16901;DHT22;8567;52.540;6.434;2023-12-22T06:28:49;18.50;55.70
16901;DHT22;8567;52.540;6.434;2023-12-22T06:31:17;18.50;55.70
16901;DHT22;8567;52.540;6.434;2023-12-22T06:33:47;18.50;55.70
16901;DHT22;8567;52.540;6.434;2023-12-22T06:36:18;18.50;55.60
16901;DHT22;8567;52.540;6.434;2023-12-22T06:38:46;18.50;55.70
16901;DHT22;8567;52.540;6.434;2023-12-22T06:41:20;18.50;55.70
16901;DHT22;8567;52.540;6.434;2023-12-22T06:43:47;18.50;55.60
16901;DHT22;8567;52.540;6.434;2023-12-22T06:46:17;18.50;55.60
16901;DHT22;8567;52.540;6.434;2023-12-22T06:48:44;18.50;55.70
16901;DHT22;8567;52.540;6.434;2023-12-22T06:51:18;18.50;55.70
16901;DHT22;8567;52.540;6.434;2023-12-22T06:53:46;18.50;55.70
16901;DHT22;8567;52.540;6.434;2023-12-22T06:56:19;18.50;55.70
16901;DHT22;8567;52.540;6.434;2023-12-22T06:58:46;18.50;55.70
16901;DHT22;8567;52.540;6.434;2023-12-22T07:01:18;18.50;55.80
16901;DHT22;8567;52.540;6.434;2023-12-22T07:03:45;18.50;55.80
16901;DHT22;8567;52.540;6.434;2023-12-22T07:06:13;18.50;55.80
16901;DHT22;8567;52.540;6.434;2023-12-22T07:08:44;18.50;55.80
16901;DHT22;8567;52.540;6.434;2023-12-22T07:11:26;18.50;55.90
16901;DHT22;8567;52.540;6.434;2023-12-22T07:13:53;18.50;56.00
16901;DHT22;8567;52.540;6.434;2023-12-22T07:16:22;18.60;56.30
16901;DHT22;8567;52.540;6.434;2023-12-22T07:18:49;18.60;56.60
16901;DHT22;8567;52.540;6.434;2023-12-22T07:21:17;18.60;56.50
16901;DHT22;8567;52.540;6.434;2023-12-22T07:23:43;18.60;56.50
16901;DHT22;8567;52.540;6.434;2023-12-22T07:26:11;18.60;56.60
16901;DHT22;8567;52.540;6.434;2023-12-22T07:28:39;18.60;56.60
16901;DHT22;8567;52.540;6.434;2023-12-22T07:31:06;18.60;56.60
16901;DHT22;8567;52.540;6.434;2023-12-22T07:33:33;18.60;57.70
16901;DHT22;8567;52.540;6.434;2023-12-22T07:35:59;18.70;57.60
16901;DHT22;8567;52.540;6.434;2023-12-22T07:38:26;18.70;57.30
16901;DHT22;8567;52.540;6.434;2023-12-22T07:40:55;18.70;57.30
16901;DHT22;8567;52.540;6.434;2023-12-22T07:43:22;18.70;57.40
16901;DHT22;8567;52.540;6.434;2023-12-22T07:45:51;18.70;57.50
16901;DHT22;8567;52.540;6.434;2023-12-22T07:48:20;18.70;57.30
16901;DHT22;8567;52.540;6.434;2023-12-22T07:50:47;18.70;56.90
16901;DHT22;8567;52.540;6.434;2023-12-22T07:53:13;18.70;57.10
16901;DHT22;8567;52.540;6.434;2023-12-22T07:55:44;18.70;57.90
16901;DHT22;8567;52.540;6.434;2023-12-22T07:58:11;18.70;58.50
16901;DHT22;8567;52.540;6.434;2023-12-22T08:00:38;18.70;58.70
16901;DHT22;8567;52.540;6.434;2023-12-22T08:03:06;18.80;59.20
16901;DHT22;8567;52.540;6.434;2023-12-22T08:05:33;18.80;59.40
16901;DHT22;8567;52.540;6.434;2023-12-22T08:08:00;18.80;59.50
16901;DHT22;8567;52.540;6.434;2023-12-22T08:10:27;18.80;60.00
16901;DHT22;8567;52.540;6.434;2023-12-22T08:12:54;18.80;60.20
16901;DHT22;8567;52.540;6.434;2023-12-22T08:15:21;18.80;60.30
16901;DHT22;8567;52.540;6.434;2023-12-22T08:17:48;18.80;60.00
16901;DHT22;8567;52.540;6.434;2023-12-22T08:20:19;18.80;59.70
16901;DHT22;8567;52.540;6.434;2023-12-22T08:22:46;18.80;59.40
16901;DHT22;8567;52.540;6.434;2023-12-22T08:25:13;18.80;59.70
16901;DHT22;8567;52.540;6.434;2023-12-22T08:27:40;18.80;59.40
16901;DHT22;8567;52.540;6.434;2023-12-22T08:30:09;18.80;59.40
16901;DHT22;8567;52.540;6.434;2023-12-22T08:32:36;18.80;59.20
16901;DHT22;8567;52.540;6.434;2023-12-22T08:35:04;18.80;59.10
16901;DHT22;8567;52.540;6.434;2023-12-22T08:37:32;18.80;59.20
16901;DHT22;8567;52.540;6.434;2023-12-22T08:39:59;18.90;59.40
16901;DHT22;8567;52.540;6.434;2023-12-22T08:42:26;18.90;59.40
16901;DHT22;8567;52.540;6.434;2023-12-22T08:44:55;18.90;59.20
16901;DHT22;8567;52.540;6.434;2023-12-22T08:47:22;18.90;59.00
16901;DHT22;8567;52.540;6.434;2023-12-22T08:49:50;18.90;58.80
16901;DHT22;8567;52.540;6.434;2023-12-22T08:52:18;18.90;59.00
16901;DHT22;8567;52.540;6.434;2023-12-22T08:54:46;18.90;58.80
16901;DHT22;8567;52.540;6.434;2023-12-22T08:57:13;18.90;58.80
16901;DHT22;8567;52.540;6.434;2023-12-22T08:59:41;19.00;59.30
16901;DHT22;8567;52.540;6.434;2023-12-22T09:02:08;19.00;58.90
16901;DHT22;8567;52.540;6.434;2023-12-22T09:04:34;19.00;58.80
16901;DHT22;8567;52.540;6.434;2023-12-22T09:07:01;19.00;58.70
16901;DHT22;8567;52.540;6.434;2023-12-22T09:09:28;19.00;58.70
16901;DHT22;8567;52.540;6.434;2023-12-22T09:11:58;19.00;58.60
16901;DHT22;8567;52.540;6.434;2023-12-22T09:14:25;19.00;58.70
16901;DHT22;8567;52.540;6.434;2023-12-22T09:16:52;19.00;58.70
16901;DHT22;8567;52.540;6.434;2023-12-22T09:19:21;19.00;58.60
16901;DHT22;8567;52.540;6.434;2023-12-22T09:21:48;19.00;58.50
16901;DHT22;8567;52.540;6.434;2023-12-22T09:24:15;19.10;58.40
16901;DHT22;8567;52.540;6.434;2023-12-22T09:26:42;19.10;58.30
16901;DHT22;8567;52.540;6.434;2023-12-22T09:29:11;19.10;58.30
16901;DHT22;8567;52.540;6.434;2023-12-22T09:31:38;19.10;58.40
16901;DHT22;8567;52.540;6.434;2023-12-22T09:34:03;19.10;58.30
16901;DHT22;8567;52.540;6.434;2023-12-22T09:36:31;19.10;58.40
16901;DHT22;8567;52.540;6.434;2023-12-22T09:38:57;19.10;58.70
16901;DHT22;8567;52.540;6.434;2023-12-22T09:41:24;19.10;58.20
16901;DHT22;8567;52.540;6.434;2023-12-22T09:43:52;19.10;58.40
16901;DHT22;8567;52.540;6.434;2023-12-22T09:46:23;19.10;57.90
16901;DHT22;8567;52.540;6.434;2023-12-22T09:48:52;19.10;58.00
16901;DHT22;8567;52.540;6.434;2023-12-22T09:51:20;19.10;57.70
16901;DHT22;8567;52.540;6.434;2023-12-22T09:53:47;19.10;57.60
16901;DHT22;8567;52.540;6.434;2023-12-22T09:56:16;19.10;57.50
16901;DHT22;8567;52.540;6.434;2023-12-22T09:58:45;19.10;57.50
16901;DHT22;8567;52.540;6.434;2023-12-22T10:01:14;19.10;57.50
16901;DHT22;8567;52.540;6.434;2023-12-22T10:03:42;19.20;57.60
16901;DHT22;8567;52.540;6.434;2023-12-22T10:06:10;19.20;57.40
16901;DHT22;8567;52.540;6.434;2023-12-22T10:08:37;19.10;57.40
16901;DHT22;8567;52.540;6.434;2023-12-22T10:11:05;19.10;57.30
16901;DHT22;8567;52.540;6.434;2023-12-22T10:13:36;19.20;57.20
16901;DHT22;8567;52.540;6.434;2023-12-22T10:16:05;19.10;56.60
16901;DHT22;8567;52.540;6.434;2023-12-22T10:18:34;19.10;56.20
16901;DHT22;8567;52.540;6.434;2023-12-22T10:21:03;19.10;56.00
16901;DHT22;8567;52.540;6.434;2023-12-22T10:23:30;19.10;55.90
16901;DHT22;8567;52.540;6.434;2023-12-22T10:25:57;19.10;55.80
16901;DHT22;8567;52.540;6.434;2023-12-22T10:28:27;19.10;55.60
16901;DHT22;8567;52.540;6.434;2023-12-22T10:30:54;19.00;55.70
16901;DHT22;8567;52.540;6.434;2023-12-22T10:33:24;19.00;55.60
16901;DHT22;8567;52.540;6.434;2023-12-22T10:35:54;19.00;55.60
16901;DHT22;8567;52.540;6.434;2023-12-22T10:38:22;19.00;56.20
16901;DHT22;8567;52.540;6.434;2023-12-22T10:40:50;19.00;56.20
16901;DHT22;8567;52.540;6.434;2023-12-22T10:43:17;19.00;55.90
16901;DHT22;8567;52.540;6.434;2023-12-22T10:45:44;19.00;55.80
16901;DHT22;8567;52.540;6.434;2023-12-22T10:48:11;19.00;55.50
16901;DHT22;8567;52.540;6.434;2023-12-22T10:50:39;19.00;55.00
16901;DHT22;8567;52.540;6.434;2023-12-22T10:53:07;19.00;55.30
16901;DHT22;8567;52.540;6.434;2023-12-22T10:55:35;19.00;54.80
16901;DHT22;8567;52.540;6.434;2023-12-22T10:58:03;19.00;54.70
16901;DHT22;8567;52.540;6.434;2023-12-22T11:00:32;19.00;54.50
16901;DHT22;8567;52.540;6.434;2023-12-22T11:03:01;19.00;55.00
16901;DHT22;8567;52.540;6.434;2023-12-22T11:05:36;18.90;55.30
16901;DHT22;8567;52.540;6.434;2023-12-22T11:08:08;19.00;55.40
16901;DHT22;8567;52.540;6.434;2023-12-22T11:10:41;18.90;55.20
16901;DHT22;8567;52.540;6.434;2023-12-22T11:13:09;18.90;54.80
16901;DHT22;8567;52.540;6.434;2023-12-22T11:15:36;18.90;55.00
16901;DHT22;8567;52.540;6.434;2023-12-22T11:18:05;18.90;55.20
16901;DHT22;8567;52.540;6.434;2023-12-22T11:20:32;18.90;55.30
16901;DHT22;8567;52.540;6.434;2023-12-22T11:23:00;18.90;55.30
16901;DHT22;8567;52.540;6.434;2023-12-22T11:25:28;18.90;55.50
16901;DHT22;8567;52.540;6.434;2023-12-22T11:27:59;18.90;55.30
16901;DHT22;8567;52.540;6.434;2023-12-22T11:30:28;18.90;55.50
16901;DHT22;8567;52.540;6.434;2023-12-22T11:32:56;18.90;55.30
16901;DHT22;8567;52.540;6.434;2023-12-22T11:35:24;18.90;55.40
16901;DHT22;8567;52.540;6.434;2023-12-22T11:37:51;18.80;55.60
16901;DHT22;8567;52.540;6.434;2023-12-22T11:40:21;18.90;55.30
16901;DHT22;8567;52.540;6.434;2023-12-22T11:42:49;18.90;55.40
16901;DHT22;8567;52.540;6.434;2023-12-22T11:45:19;18.90;55.40
16901;DHT22;8567;52.540;6.434;2023-12-22T11:47:48;18.80;54.90
16901;DHT22;8567;52.540;6.434;2023-12-22T11:50:28;18.80;55.10
16901;DHT22;8567;52.540;6.434;2023-12-22T11:52:55;18.80;54.80
16901;DHT22;8567;52.540;6.434;2023-12-22T11:55:55;18.80;55.10
16901;DHT22;8567;52.540;6.434;2023-12-22T11:58:36;18.80;55.40
16901;DHT22;8567;52.540;6.434;2023-12-22T12:01:07;18.80;55.20
16901;DHT22;8567;52.540;6.434;2023-12-22T12:03:37;18.80;55.30
16901;DHT22;8567;52.540;6.434;2023-12-22T12:06:30;18.80;55.50
16901;DHT22;8567;52.540;6.434;2023-12-22T12:08:58;18.80;55.60
16901;DHT22;8567;52.540;6.434;2023-12-22T12:12:11;18.80;55.50
16901;DHT22;8567;52.540;6.434;2023-12-22T12:14:41;18.80;55.40
16901;DHT22;8567;52.540;6.434;2023-12-22T12:17:11;18.80;55.00
16901;DHT22;8567;52.540;6.434;2023-12-22T12:19:38;18.80;55.10
16901;DHT22;8567;52.540;6.434;2023-12-22T12:22:07;18.80;55.00
16901;DHT22;8567;52.540;6.434;2023-12-22T12:24:36;18.80;55.00
16901;DHT22;8567;52.540;6.434;2023-12-22T12:27:04;18.80;55.10
16901;DHT22;8567;52.540;6.434;2023-12-22T12:29:31;18.80;54.90
16901;DHT22;8567;52.540;6.434;2023-12-22T12:32:03;18.70;55.00
16901;DHT22;8567;52.540;6.434;2023-12-22T12:34:31;18.80;55.20
16901;DHT22;8567;52.540;6.434;2023-12-22T12:36:59;18.80;54.80
16901;DHT22;8567;52.540;6.434;2023-12-22T12:39:30;18.80;54.90
16901;DHT22;8567;52.540;6.434;2023-12-22T12:42:00;18.80;55.00
16901;DHT22;8567;52.540;6.434;2023-12-22T12:44:27;18.80;55.10
16901;DHT22;8567;52.540;6.434;2023-12-22T12:46:57;18.70;55.00
16901;DHT22;8567;52.540;6.434;2023-12-22T12:49:25;18.70;54.90
16901;DHT22;8567;52.540;6.434;2023-12-22T12:51:56;18.70;55.00
16901;DHT22;8567;52.540;6.434;2023-12-22T12:54:23;18.70;55.00
16901;DHT22;8567;52.540;6.434;2023-12-22T12:56:50;18.70;55.00
16901;DHT22;8567;52.540;6.434;2023-12-22T12:59:17;18.70;54.90
16901;DHT22;8567;52.540;6.434;2023-12-22T13:01:45;18.70;54.90
16901;DHT22;8567;52.540;6.434;2023-12-22T13:04:14;18.70;54.80
16901;DHT22;8567;52.540;6.434;2023-12-22T13:06:45;18.70;55.00
16901;DHT22;8567;52.540;6.434;2023-12-22T13:09:13;18.70;54.90
16901;DHT22;8567;52.540;6.434;2023-12-22T13:11:41;18.70;54.80
16901;DHT22;8567;52.540;6.434;2023-12-22T13:14:09;18.70;54.90
16901;DHT22;8567;52.540;6.434;2023-12-22T13:16:37;18.70;54.90
16901;DHT22;8567;52.540;6.434;2023-12-22T13:19:04;18.70;54.90
16901;DHT22;8567;52.540;6.434;2023-12-22T13:21:31;18.70;54.90
16901;DHT22;8567;52.540;6.434;2023-12-22T13:24:13;18.70;54.80
16901;DHT22;8567;52.540;6.434;2023-12-22T13:26:41;18.70;54.70
16901;DHT22;8567;52.540;6.434;2023-12-22T13:29:10;18.70;54.70
16901;DHT22;8567;52.540;6.434;2023-12-22T13:31:37;18.70;54.60
16901;DHT22;8567;52.540;6.434;2023-12-22T13:34:08;18.70;54.50
16901;DHT22;8567;52.540;6.434;2023-12-22T13:36:35;18.70;54.50
16901;DHT22;8567;52.540;6.434;2023-12-22T13:39:03;18.70;54.10
16901;DHT22;8567;52.540;6.434;2023-12-22T13:41:33;18.70;54.50
16901;DHT22;8567;52.540;6.434;2023-12-22T13:44:06;18.60;54.50
16901;DHT22;8567;52.540;6.434;2023-12-22T13:46:33;18.70;54.10
16901;DHT22;8567;52.540;6.434;2023-12-22T13:49:02;18.60;54.20
16901;DHT22;8567;52.540;6.434;2023-12-22T13:51:39;18.60;54.40
16901;DHT22;8567;52.540;6.434;2023-12-22T13:54:08;18.70;54.10
16901;DHT22;8567;52.540;6.434;2023-12-22T13:56:36;18.60;54.20
16901;DHT22;8567;52.540;6.434;2023-12-22T13:59:05;18.60;54.30
16901;DHT22;8567;52.540;6.434;2023-12-22T14:01:33;18.60;54.10
16901;DHT22;8567;52.540;6.434;2023-12-22T14:04:00;18.60;53.80
16901;DHT22;8567;52.540;6.434;2023-12-22T14:06:27;18.60;53.70
16901;DHT22;8567;52.540;6.434;2023-12-22T14:08:54;18.60;53.40
16901;DHT22;8567;52.540;6.434;2023-12-22T14:11:22;18.60;53.30
16901;DHT22;8567;52.540;6.434;2023-12-22T14:13:54;18.60;53.20
16901;DHT22;8567;52.540;6.434;2023-12-22T14:16:20;18.60;53.40
16901;DHT22;8567;52.540;6.434;2023-12-22T14:18:47;18.60;53.50
16901;DHT22;8567;52.540;6.434;2023-12-22T14:21:14;18.60;53.10
16901;DHT22;8567;52.540;6.434;2023-12-22T14:23:41;18.60;53.40
16901;DHT22;8567;52.540;6.434;2023-12-22T14:26:08;18.60;53.30
16901;DHT22;8567;52.540;6.434;2023-12-22T14:28:35;18.60;53.50
16901;DHT22;8567;52.540;6.434;2023-12-22T14:31:03;18.60;53.60
16901;DHT22;8567;52.540;6.434;2023-12-22T14:33:31;18.60;53.70
16901;DHT22;8567;52.540;6.434;2023-12-22T14:35:58;18.60;53.60
16901;DHT22;8567;52.540;6.434;2023-12-22T14:38:24;18.70;57.40
16901;DHT22;8567;52.540;6.434;2023-12-22T14:40:52;18.70;52.90
16901;DHT22;8567;52.540;6.434;2023-12-22T14:43:18;18.70;52.60
16901;DHT22;8567;52.540;6.434;2023-12-22T14:45:45;18.80;52.40
16901;DHT22;8567;52.540;6.434;2023-12-22T14:48:14;18.80;52.00
16901;DHT22;8567;52.540;6.434;2023-12-22T14:50:42;18.80;51.50
16901;DHT22;8567;52.540;6.434;2023-12-22T14:53:10;18.80;51.20
16901;DHT22;8567;52.540;6.434;2023-12-22T14:55:37;18.80;50.90
16901;DHT22;8567;52.540;6.434;2023-12-22T14:58:03;18.80;50.80
16901;DHT22;8567;52.540;6.434;2023-12-22T15:00:32;18.80;50.50
16901;DHT22;8567;52.540;6.434;2023-12-22T15:03:00;18.80;50.50
16901;DHT22;8567;52.540;6.434;2023-12-22T15:05:28;18.90;50.70
16901;DHT22;8567;52.540;6.434;2023-12-22T15:07:55;18.90;50.60
16901;DHT22;8567;52.540;6.434;2023-12-22T15:10:22;18.90;50.30
16901;DHT22;8567;52.540;6.434;2023-12-22T15:12:49;18.80;50.40
16901;DHT22;8567;52.540;6.434;2023-12-22T15:15:16;18.80;50.60
16901;DHT22;8567;52.540;6.434;2023-12-22T15:17:42;18.80;50.70
16901;DHT22;8567;52.540;6.434;2023-12-22T15:20:09;18.80;50.70
16901;DHT22;8567;52.540;6.434;2023-12-22T15:22:39;18.70;50.90
16901;DHT22;8567;52.540;6.434;2023-12-22T15:25:06;18.70;50.90
16901;DHT22;8567;52.540;6.434;2023-12-22T15:27:33;18.70;50.90
16901;DHT22;8567;52.540;6.434;2023-12-22T15:30:03;18.70;51.20
16901;DHT22;8567;52.540;6.434;2023-12-22T15:32:30;18.70;51.30
16901;DHT22;8567;52.540;6.434;2023-12-22T15:34:57;18.70;51.40
16901;DHT22;8567;52.540;6.434;2023-12-22T15:37:24;18.70;51.30
16901;DHT22;8567;52.540;6.434;2023-12-22T15:39:52;18.70;51.20
16901;DHT22;8567;52.540;6.434;2023-12-22T15:42:19;18.70;51.10
16901;DHT22;8567;52.540;6.434;2023-12-22T15:44:46;18.70;51.10
16901;DHT22;8567;52.540;6.434;2023-12-22T15:47:12;18.60;51.30
16901;DHT22;8567;52.540;6.434;2023-12-22T15:49:39;18.60;51.30
16901;DHT22;8567;52.540;6.434;2023-12-22T15:52:06;18.60;51.30